createdAt,value
2018-02-19T00:00:35.182Z,4.40
2018-02-19T00:01:37.791Z,4.40
2018-02-19T00:02:40.387Z,4.40
2018-02-19T00:03:42.947Z,4.40
2018-02-19T00:04:45.440Z,4.40
2018-02-19T00:05:47.942Z,4.30
2018-02-19T00:06:50.467Z,4.30
2018-02-19T00:07:52.972Z,4.30
2018-02-19T00:08:56.315Z,4.30
2018-02-19T00:09:58.814Z,4.30
2018-02-19T00:11:02.083Z,4.30
2018-02-19T00:12:04.615Z,4.30
2018-02-19T00:13:08.189Z,4.30
2018-02-19T00:14:10.698Z,4.30
2018-02-19T00:15:13.214Z,4.30
2018-02-19T00:16:15.715Z,4.30
2018-02-19T00:17:18.237Z,4.30
2018-02-19T00:18:20.786Z,4.30
2018-02-19T00:19:24.190Z,4.30
2018-02-19T00:20:26.700Z,4.30
2018-02-19T00:21:29.211Z,4.30
2018-02-19T00:22:31.772Z,4.30
2018-02-19T00:23:35.038Z,4.30
2018-02-19T00:24:38.313Z,4.30
2018-02-19T00:25:40.816Z,4.30
2018-02-19T00:26:43.318Z,4.30
2018-02-19T00:27:45.848Z,4.30
2018-02-19T00:28:48.359Z,4.30
2018-02-19T00:29:50.881Z,4.30
2018-02-19T00:30:53.387Z,4.30
2018-02-19T00:31:55.898Z,4.30
2018-02-19T00:32:58.438Z,4.30
2018-02-19T00:34:00.943Z,4.30
2018-02-19T00:35:03.455Z,4.20
2018-02-19T00:36:05.962Z,4.20
2018-02-19T00:37:08.467Z,4.20
2018-02-19T00:38:10.988Z,4.20
2018-02-19T00:39:13.568Z,4.20
2018-02-19T00:40:16.084Z,4.20
2018-02-19T00:41:18.591Z,4.20
2018-02-19T00:42:21.174Z,4.20
2018-02-19T00:43:23.739Z,4.20
2018-02-19T00:44:26.247Z,4.10
2018-02-19T00:45:28.750Z,4.10
2018-02-19T00:46:32.044Z,4.10
2018-02-19T00:47:34.609Z,4.10
2018-02-19T00:48:37.156Z,4.20
2018-02-19T00:49:40.436Z,4.20
2018-02-19T00:50:43.706Z,4.20
2018-02-19T00:51:46.206Z,4.20
2018-02-19T00:52:48.707Z,4.20
2018-02-19T00:53:51.221Z,4.20
2018-02-19T00:54:54.506Z,4.20
2018-02-19T00:55:57.941Z,4.20
2018-02-19T00:57:00.435Z,4.10
2018-02-19T00:58:03.034Z,4.20
2018-02-19T00:59:05.563Z,4.10
2018-02-19T01:00:08.070Z,4.20
2018-02-19T01:01:10.582Z,4.20
2018-02-19T01:02:13.088Z,4.20
2018-02-19T01:03:16.357Z,4.10
2018-02-19T01:04:18.879Z,4.10
2018-02-19T01:05:21.391Z,4.10
2018-02-19T01:06:24.654Z,4.10
2018-02-19T01:07:27.152Z,4.10
2018-02-19T01:08:30.424Z,4.10
2018-02-19T01:09:33.714Z,4.10
2018-02-19T01:10:36.986Z,4.10
2018-02-19T01:11:40.255Z,4.10
2018-02-19T01:12:42.762Z,4.10
2018-02-19T01:13:45.282Z,4.10
2018-02-19T01:14:47.824Z,4.10
2018-02-19T01:15:50.335Z,4.10
2018-02-19T01:16:53.602Z,4.10
2018-02-19T01:17:56.102Z,4.10
2018-02-19T01:18:58.630Z,4.10
2018-02-19T01:20:01.150Z,4.10
2018-02-19T01:21:03.711Z,4.10
2018-02-19T01:22:06.218Z,4.10
2018-02-19T01:23:08.727Z,4.10
2018-02-19T01:24:11.235Z,4.10
2018-02-19T01:25:13.755Z,4.10
2018-02-19T01:26:17.038Z,4.10
2018-02-19T01:27:20.307Z,4.10
2018-02-19T01:28:23.579Z,4.00
2018-02-19T01:29:26.150Z,4.10
2018-02-19T01:30:28.744Z,4.10
2018-02-19T01:31:31.251Z,4.10
2018-02-19T01:32:33.754Z,4.10
2018-02-19T01:33:37.031Z,4.10
2018-02-19T01:34:39.531Z,4.10
2018-02-19T01:35:42.064Z,4.10
2018-02-19T01:36:44.570Z,4.10
2018-02-19T01:37:47.066Z,4.10
2018-02-19T01:38:49.567Z,4.10
2018-02-19T01:39:52.854Z,4.10
2018-02-19T01:40:56.142Z,4.10
2018-02-19T01:41:59.425Z,4.20
2018-02-19T01:43:01.932Z,4.10
2018-02-19T01:44:04.435Z,4.20
2018-02-19T01:45:06.940Z,4.10
2018-02-19T01:46:09.462Z,4.20
2018-02-19T01:47:11.969Z,4.20
2018-02-19T01:48:14.470Z,4.20
2018-02-19T01:49:16.975Z,4.20
2018-02-19T01:50:20.247Z,4.10
2018-02-19T01:51:22.779Z,4.10
2018-02-19T01:52:25.291Z,4.10
2018-02-19T01:53:28.597Z,4.10
2018-02-19T01:54:31.102Z,4.10
2018-02-19T01:55:33.620Z,4.10
2018-02-19T01:56:36.145Z,4.10
2018-02-19T01:57:38.661Z,4.10
2018-02-19T01:58:41.185Z,4.10
2018-02-19T01:59:43.696Z,4.10
2018-02-19T02:00:46.203Z,4.10
2018-02-19T02:01:48.735Z,4.10
2018-02-19T02:02:51.238Z,4.10
2018-02-19T02:03:53.754Z,4.10
2018-02-19T02:04:56.312Z,4.10
2018-02-19T02:05:58.809Z,4.10
2018-02-19T02:07:02.163Z,4.10
2018-02-19T02:08:04.734Z,4.10
2018-02-19T02:09:07.240Z,4.00
2018-02-19T02:10:09.743Z,4.10
2018-02-19T02:11:13.016Z,4.00
2018-02-19T02:12:16.302Z,4.00
2018-02-19T02:13:19.582Z,4.00
2018-02-19T02:14:22.097Z,4.00
2018-02-19T02:15:24.601Z,4.00
2018-02-19T02:16:27.203Z,4.00
2018-02-19T02:17:29.722Z,4.00
2018-02-19T02:18:32.226Z,4.00
2018-02-19T02:19:35.494Z,4.10
2018-02-19T02:20:38.114Z,4.00
2018-02-19T02:21:40.654Z,4.10
2018-02-19T02:22:43.178Z,4.00
2018-02-19T02:23:45.680Z,4.00
2018-02-19T02:24:48.198Z,4.00
2018-02-19T02:25:50.694Z,4.00
2018-02-19T02:26:53.958Z,4.00
2018-02-19T02:27:56.478Z,4.00
2018-02-19T02:28:59.035Z,4.00
2018-02-19T02:30:01.643Z,4.00
2018-02-19T02:31:04.153Z,4.00
2018-02-19T02:32:06.680Z,4.00
2018-02-19T02:33:09.215Z,4.00
2018-02-19T02:34:11.714Z,4.00
2018-02-19T02:35:14.232Z,4.00
2018-02-19T02:36:16.740Z,4.00
2018-02-19T02:37:19.247Z,4.00
2018-02-19T02:38:22.530Z,4.00
2018-02-19T02:39:25.803Z,4.00
2018-02-19T02:40:29.078Z,4.00
2018-02-19T02:41:31.576Z,4.00
2018-02-19T02:42:34.078Z,4.00
2018-02-19T02:43:36.599Z,4.00
2018-02-19T02:44:39.117Z,4.00
2018-02-19T02:45:41.623Z,4.00
2018-02-19T02:46:44.895Z,4.00
2018-02-19T02:47:48.167Z,3.90
2018-02-19T02:48:50.702Z,3.90
2018-02-19T02:49:53.205Z,3.90
2018-02-19T02:50:56.481Z,3.90
2018-02-19T02:51:59.786Z,3.90
2018-02-19T02:53:03.052Z,3.90
2018-02-19T02:54:05.592Z,3.90
2018-02-19T02:55:08.103Z,3.90
2018-02-19T02:56:11.396Z,3.90
2018-02-19T02:57:13.906Z,3.90
2018-02-19T02:58:16.414Z,3.90
2018-02-19T02:59:19.699Z,3.90
2018-02-19T03:00:22.972Z,3.90
2018-02-19T03:01:26.268Z,3.90
2018-02-19T03:02:28.783Z,3.90
2018-02-19T03:03:31.287Z,3.90
2018-02-19T03:04:34.583Z,3.90
2018-02-19T03:05:37.079Z,3.90
2018-02-19T03:06:39.581Z,3.90
2018-02-19T03:07:42.085Z,3.90
2018-02-19T03:08:44.592Z,3.90
2018-02-19T03:09:47.116Z,3.80
2018-02-19T03:10:49.629Z,3.80
2018-02-19T03:11:52.128Z,3.80
2018-02-19T03:12:55.398Z,3.80
2018-02-19T03:13:58.667Z,3.80
2018-02-19T03:15:01.184Z,3.80
2018-02-19T03:16:03.692Z,3.80
2018-02-19T03:17:06.199Z,3.90
2018-02-19T03:18:09.472Z,3.90
2018-02-19T03:19:12.750Z,3.90
2018-02-19T03:20:16.063Z,3.90
2018-02-19T03:21:18.567Z,3.90
2018-02-19T03:22:21.075Z,3.90
2018-02-19T03:23:24.339Z,3.90
2018-02-19T03:24:26.851Z,3.90
2018-02-19T03:25:29.378Z,3.90
2018-02-19T03:26:32.651Z,3.90
2018-02-19T03:27:35.159Z,3.90
2018-02-19T03:28:37.666Z,3.90
2018-02-19T03:29:40.171Z,3.90
2018-02-19T03:30:42.714Z,3.90
2018-02-19T03:31:45.227Z,3.90
2018-02-19T03:32:47.730Z,3.90
2018-02-19T03:33:50.222Z,3.90
2018-02-19T03:34:53.503Z,3.90
2018-02-19T03:35:56.803Z,3.90
2018-02-19T03:36:59.315Z,3.90
2018-02-19T03:38:01.814Z,3.90
2018-02-19T03:39:05.079Z,3.90
2018-02-19T03:40:07.589Z,3.90
2018-02-19T03:41:10.107Z,3.90
2018-02-19T03:42:12.612Z,3.90
2018-02-19T03:43:15.124Z,3.90
2018-02-19T03:44:17.631Z,3.90
2018-02-19T03:45:20.902Z,3.90
2018-02-19T03:46:24.201Z,3.90
2018-02-19T03:47:27.474Z,3.90
2018-02-19T03:48:29.980Z,3.90
2018-02-19T03:49:32.479Z,3.90
2018-02-19T03:50:34.979Z,3.90
2018-02-19T03:51:38.274Z,3.90
2018-02-19T03:52:40.782Z,3.90
2018-02-19T03:53:43.294Z,3.90
2018-02-19T03:54:45.806Z,3.90
2018-02-19T03:55:48.316Z,3.90
2018-02-19T03:56:51.599Z,3.90
2018-02-19T03:57:54.866Z,3.90
2018-02-19T03:58:57.375Z,3.90
2018-02-19T03:59:59.888Z,3.90
2018-02-19T04:01:02.395Z,3.90
2018-02-19T04:02:05.706Z,3.90
2018-02-19T04:03:08.267Z,3.90
2018-02-19T04:04:10.769Z,3.90
2018-02-19T04:05:13.276Z,4.00
2018-02-19T04:06:15.844Z,3.90
2018-02-19T04:07:18.390Z,4.00
2018-02-19T04:08:21.654Z,4.00
2018-02-19T04:09:24.669Z,4.00
2018-02-19T04:10:27.229Z,3.90
2018-02-19T04:11:29.707Z,3.90
2018-02-19T04:12:32.327Z,3.90
2018-02-19T04:13:34.830Z,3.90
2018-02-19T04:14:38.098Z,3.90
2018-02-19T04:15:41.370Z,3.90
2018-02-19T04:16:43.878Z,3.90
2018-02-19T04:17:46.400Z,3.90
2018-02-19T04:18:49.670Z,3.90
2018-02-19T04:19:52.281Z,3.80
2018-02-19T04:20:54.779Z,3.80
2018-02-19T04:21:57.276Z,3.80
2018-02-19T04:22:59.803Z,3.80
2018-02-19T04:24:02.350Z,3.80
2018-02-19T04:25:04.855Z,3.80
2018-02-19T04:26:07.363Z,3.80
2018-02-19T04:27:10.625Z,3.90
2018-02-19T04:28:13.150Z,3.80
2018-02-19T04:29:15.689Z,3.80
2018-02-19T04:30:18.198Z,3.90
2018-02-19T04:31:20.708Z,3.90
2018-02-19T04:32:23.980Z,3.80
2018-02-19T04:33:26.494Z,3.80
2018-02-19T04:34:29.007Z,3.80
2018-02-19T04:35:31.524Z,3.80
2018-02-19T04:36:34.024Z,3.80
2018-02-19T04:37:36.528Z,3.80
2018-02-19T04:38:39.051Z,3.70
2018-02-19T04:39:41.559Z,3.70
2018-02-19T04:40:44.059Z,3.70
2018-02-19T04:41:46.570Z,3.70
2018-02-19T04:43:00.550Z,3.70
2018-02-19T04:44:03.074Z,3.70
2018-02-19T04:45:09.903Z,3.70
2018-02-19T04:46:20.999Z,3.70
2018-02-19T04:47:23.499Z,3.70
2018-02-19T04:48:25.998Z,3.70
2018-02-19T04:49:28.521Z,3.70
2018-02-19T04:50:31.041Z,3.70
2018-02-19T04:51:33.545Z,3.70
2018-02-19T04:52:36.816Z,3.70
2018-02-19T04:53:40.078Z,3.60
2018-02-19T04:54:42.606Z,3.60
2018-02-19T04:55:45.112Z,3.60
2018-02-19T04:56:47.607Z,3.60
2018-02-19T04:57:50.879Z,3.60
2018-02-19T04:58:54.155Z,3.60
2018-02-19T04:59:57.435Z,3.70
2018-02-19T05:00:59.982Z,3.60
2018-02-19T05:02:02.479Z,3.70
2018-02-19T05:03:05.797Z,3.70
2018-02-19T05:04:08.303Z,3.70
2018-02-19T05:05:10.835Z,3.70
2018-02-19T05:06:13.334Z,3.70
2018-02-19T05:07:15.831Z,3.70
2018-02-19T05:08:19.108Z,3.70
2018-02-19T05:09:22.375Z,3.70
2018-02-19T05:10:24.915Z,3.70
2018-02-19T05:11:27.426Z,3.70
2018-02-19T05:12:30.704Z,3.60
2018-02-19T05:13:34.012Z,3.70
2018-02-19T05:14:36.515Z,3.60
2018-02-19T05:15:39.034Z,3.70
2018-02-19T05:16:41.548Z,3.60
2018-02-19T05:17:44.052Z,3.60
2018-02-19T05:18:47.323Z,3.70
2018-02-19T05:19:50.632Z,3.70
2018-02-19T05:20:53.151Z,3.70
2018-02-19T05:21:55.655Z,3.70
2018-02-19T05:22:58.997Z,3.70
2018-02-19T05:24:01.446Z,3.70
2018-02-19T05:25:03.968Z,3.70
2018-02-19T05:26:07.280Z,3.70
2018-02-19T05:27:09.778Z,3.70
2018-02-19T05:28:12.290Z,3.70
2018-02-19T05:29:14.786Z,3.70
2018-02-19T05:30:17.290Z,3.70
2018-02-19T05:31:19.827Z,3.70
2018-02-19T05:32:22.327Z,3.70
2018-02-19T05:33:24.834Z,3.70
2018-02-19T05:34:27.347Z,3.70
2018-02-19T05:35:31.354Z,3.70
2018-02-19T05:36:33.878Z,3.70
2018-02-19T05:37:36.375Z,3.70
2018-02-19T05:38:38.876Z,3.70
2018-02-19T05:39:41.412Z,3.70
2018-02-19T05:40:43.926Z,3.70
2018-02-19T05:41:46.455Z,3.70
2018-02-19T05:42:49.727Z,3.80
2018-02-19T05:43:52.227Z,3.80
2018-02-19T05:44:54.726Z,3.80
2018-02-19T05:45:57.231Z,3.80
2018-02-19T05:47:00.529Z,3.80
2018-02-19T05:48:03.798Z,3.80
2018-02-19T05:49:07.067Z,3.90
2018-02-19T05:50:09.573Z,3.80
2018-02-19T05:51:12.071Z,3.90
2018-02-19T05:52:14.599Z,3.80
2018-02-19T05:53:17.119Z,3.90
2018-02-19T05:54:19.623Z,3.90
2018-02-19T05:55:22.134Z,3.90
2018-02-19T05:56:24.638Z,3.90
2018-02-19T05:57:27.936Z,3.90
2018-02-19T05:58:31.206Z,4.00
2018-02-19T05:59:34.504Z,4.00
2018-02-19T06:00:37.011Z,4.00
2018-02-19T06:01:39.519Z,4.00
2018-02-19T06:02:42.814Z,4.00
2018-02-19T06:03:46.091Z,4.00
2018-02-19T06:04:49.372Z,4.00
2018-02-19T06:05:52.647Z,4.00
2018-02-19T06:06:55.163Z,4.00
2018-02-19T06:07:57.687Z,4.10
2018-02-19T06:09:00.962Z,4.00
2018-02-19T06:10:04.238Z,4.00
2018-02-19T06:11:06.747Z,4.00
2018-02-19T06:12:09.257Z,4.00
2018-02-19T06:13:11.804Z,4.00
2018-02-19T06:14:14.313Z,4.00
2018-02-19T06:15:17.587Z,4.00
2018-02-19T06:16:20.090Z,4.00
2018-02-19T06:17:22.595Z,4.00
2018-02-19T06:18:25.124Z,4.00
2018-02-19T06:19:27.629Z,4.00
2018-02-19T06:20:30.131Z,4.00
2018-02-19T06:21:33.407Z,4.00
2018-02-19T06:22:36.821Z,4.00
2018-02-19T06:23:39.350Z,4.00
2018-02-19T06:24:41.862Z,4.00
2018-02-19T06:25:44.420Z,4.00
2018-02-19T06:26:46.923Z,4.00
2018-02-19T06:27:49.426Z,4.00
2018-02-19T06:28:52.719Z,4.00
2018-02-19T06:29:56.004Z,3.90
2018-02-19T06:30:58.598Z,3.90
2018-02-19T06:32:01.114Z,3.90
2018-02-19T06:33:03.615Z,3.90
2018-02-19T06:34:06.144Z,3.90
2018-02-19T06:35:08.649Z,3.90
2018-02-19T06:36:11.238Z,3.90
2018-02-19T06:37:13.744Z,3.90
2018-02-19T06:38:16.246Z,3.90
2018-02-19T06:39:18.804Z,3.90
2018-02-19T06:40:21.372Z,4.00
2018-02-19T06:41:23.872Z,3.90
2018-02-19T06:42:26.375Z,4.00
2018-02-19T06:43:29.692Z,4.00
2018-02-19T06:44:32.232Z,4.00
2018-02-19T06:45:35.552Z,4.00
2018-02-19T06:46:38.058Z,4.00
2018-02-19T06:47:41.328Z,4.00
2018-02-19T06:48:43.858Z,4.00
2018-02-19T06:49:46.399Z,4.00
2018-02-19T06:50:49.671Z,4.00
2018-02-19T06:51:52.291Z,4.00
2018-02-19T06:52:54.814Z,4.00
2018-02-19T06:53:58.090Z,4.00
2018-02-19T06:55:01.415Z,4.00
2018-02-19T06:56:03.940Z,4.00
2018-02-19T06:57:07.223Z,4.00
2018-02-19T06:58:10.506Z,4.00
2018-02-19T06:59:15.286Z,4.10
2018-02-19T07:00:17.832Z,4.00
2018-02-19T07:01:20.346Z,4.00
2018-02-19T07:02:22.896Z,4.10
2018-02-19T07:03:25.424Z,4.10
2018-02-19T07:04:27.935Z,4.00
2018-02-19T07:05:30.485Z,4.10
2018-02-19T07:06:32.999Z,4.00
2018-02-19T07:07:36.275Z,4.00
2018-02-19T07:08:39.549Z,4.10
2018-02-19T07:09:42.095Z,4.10
2018-02-19T07:10:44.667Z,4.10
2018-02-19T07:11:47.200Z,4.10
2018-02-19T07:12:49.730Z,4.10
2018-02-19T07:13:52.997Z,4.10
2018-02-19T07:14:56.283Z,4.10
2018-02-19T07:15:58.840Z,4.10
2018-02-19T07:17:02.152Z,4.10
2018-02-19T07:18:04.725Z,4.10
2018-02-19T07:19:08.139Z,4.10
2018-02-19T07:20:10.673Z,4.10
2018-02-19T07:21:13.211Z,4.10
2018-02-19T07:22:16.515Z,4.10
2018-02-19T07:23:19.786Z,4.10
2018-02-19T07:24:23.083Z,4.20
2018-02-19T07:25:26.356Z,4.10
2018-02-19T07:26:29.651Z,4.20
2018-02-19T07:27:32.175Z,4.20
2018-02-19T07:28:34.694Z,4.20
2018-02-19T07:29:37.231Z,4.20
2018-02-19T07:30:40.535Z,4.20
2018-02-19T07:31:43.088Z,4.20
2018-02-19T07:32:46.358Z,4.20
2018-02-19T07:33:48.875Z,4.20
2018-02-19T07:34:51.388Z,4.20
2018-02-19T07:35:53.906Z,4.20
2018-02-19T07:36:56.446Z,4.30
2018-02-19T07:37:59.710Z,4.30
2018-02-19T07:39:02.992Z,4.30
2018-02-19T07:40:06.272Z,4.30
2018-02-19T07:41:08.778Z,4.20
2018-02-19T07:42:11.308Z,4.30
2018-02-19T07:43:14.598Z,4.30
2018-02-19T07:44:17.875Z,4.30
2018-02-19T07:45:21.168Z,4.30
2018-02-19T07:46:24.441Z,4.30
2018-02-19T07:47:27.822Z,4.30
2018-02-19T07:48:30.294Z,4.30
2018-02-19T07:49:33.561Z,4.40
2018-02-19T07:50:36.094Z,4.40
2018-02-19T07:51:38.626Z,4.40
2018-02-19T07:52:41.160Z,4.40
2018-02-19T07:53:43.686Z,4.40
2018-02-19T07:54:46.199Z,4.40
2018-02-19T07:55:49.483Z,4.50
2018-02-19T07:56:51.984Z,4.40
2018-02-19T07:57:54.579Z,4.40
2018-02-19T07:58:57.091Z,4.50
2018-02-19T08:00:00.370Z,4.50
2018-02-19T08:01:03.652Z,4.50
2018-02-19T08:02:06.925Z,4.50
2018-02-19T08:03:09.474Z,4.50
2018-02-19T08:04:11.982Z,4.50
2018-02-19T08:05:15.253Z,4.50
2018-02-19T08:06:18.535Z,4.50
2018-02-19T08:07:21.815Z,4.50
2018-02-19T08:08:25.111Z,4.50
2018-02-19T08:09:28.403Z,4.50
2018-02-19T08:10:30.925Z,4.50
2018-02-19T08:11:33.452Z,4.50
2018-02-19T08:12:35.967Z,4.60
2018-02-19T08:13:38.542Z,4.60
2018-02-19T08:14:41.913Z,4.60
2018-02-19T08:15:44.540Z,4.60
2018-02-19T08:16:47.042Z,4.60
2018-02-19T08:17:49.679Z,4.60
2018-02-19T08:18:52.243Z,4.60
2018-02-19T08:19:54.779Z,4.60
2018-02-19T08:20:58.046Z,4.70
2018-02-19T08:22:01.343Z,4.60
2018-02-19T08:23:04.615Z,4.70
2018-02-19T08:24:07.142Z,4.70
2018-02-19T08:25:10.270Z,4.70
2018-02-19T08:26:13.546Z,4.70
2018-02-19T08:27:16.836Z,4.70
2018-02-19T08:28:20.107Z,4.70
2018-02-19T08:29:22.627Z,4.70
2018-02-19T08:30:25.136Z,4.70
2018-02-19T08:31:27.843Z,4.70
2018-02-19T08:32:30.442Z,4.70
2018-02-19T08:33:33.181Z,4.80
2018-02-19T08:34:35.761Z,4.80
2018-02-19T08:35:38.343Z,4.80
2018-02-19T08:36:41.087Z,4.80
2018-02-19T08:37:43.619Z,4.80
2018-02-19T08:38:46.895Z,4.80
2018-02-19T08:39:49.427Z,4.80
2018-02-19T08:40:51.940Z,4.90
2018-02-19T08:41:55.211Z,4.90
2018-02-19T08:42:57.715Z,4.90
2018-02-19T08:44:00.229Z,4.90
2018-02-19T08:45:03.546Z,4.90
2018-02-19T08:46:06.816Z,5.00
2018-02-19T08:47:10.129Z,5.00
2018-02-19T08:48:12.653Z,5.00
2018-02-19T08:49:15.160Z,5.00
2018-02-19T08:50:17.684Z,5.00
2018-02-19T08:51:20.289Z,5.00
2018-02-19T08:52:22.867Z,5.00
2018-02-19T08:53:25.371Z,5.10
2018-02-19T08:54:27.883Z,5.10
2018-02-19T08:55:30.431Z,5.10
2018-02-19T08:56:33.710Z,5.10
2018-02-19T08:57:37.014Z,5.20
2018-02-19T08:58:39.539Z,5.10
2018-02-19T08:59:42.052Z,5.20
2018-02-19T09:00:44.592Z,5.20
2018-02-19T09:01:47.868Z,5.20
2018-02-19T09:02:50.376Z,5.20
2018-02-19T09:03:52.875Z,5.20
2018-02-19T09:04:56.100Z,5.30
2018-02-19T09:05:59.401Z,5.30
2018-02-19T09:07:01.980Z,5.30
2018-02-19T09:08:04.483Z,5.30
2018-02-19T09:09:07.032Z,5.30
2018-02-19T09:10:09.540Z,5.30
2018-02-19T09:11:12.830Z,5.30
2018-02-19T09:12:16.105Z,5.30
2018-02-19T09:13:19.374Z,5.40
2018-02-19T09:14:21.886Z,5.40
2018-02-19T09:15:24.550Z,5.40
2018-02-19T09:16:27.079Z,5.40
2018-02-19T09:17:29.595Z,5.40
2018-02-19T09:18:32.095Z,5.40
2018-02-19T09:19:34.633Z,5.40
2018-02-19T09:20:37.138Z,5.40
2018-02-19T09:21:40.435Z,5.50
2018-02-19T09:22:43.726Z,5.40
2018-02-19T09:23:47.026Z,5.50
2018-02-19T09:24:49.535Z,5.50
2018-02-19T09:25:52.057Z,5.50
2018-02-19T09:26:54.605Z,5.50
2018-02-19T09:27:57.884Z,5.50
2018-02-19T09:30:10.204Z,5.50
2018-02-19T09:31:12.726Z,5.60
2018-02-19T09:32:15.256Z,5.60
2018-02-19T09:33:17.767Z,5.60
2018-02-19T09:34:20.285Z,5.60
2018-02-19T09:35:22.810Z,5.60
2018-02-19T09:36:26.079Z,5.60
2018-02-19T09:37:28.644Z,5.60
2018-02-19T09:38:31.925Z,5.70
2018-02-19T09:39:34.437Z,5.70
2018-02-19T09:40:36.987Z,5.70
2018-02-19T09:41:40.303Z,5.70
2018-02-19T09:42:42.830Z,5.70
2018-02-19T09:43:46.106Z,5.70
2018-02-19T09:44:49.390Z,5.70
2018-02-19T09:45:52.655Z,5.70
2018-02-19T09:46:55.167Z,5.70
2018-02-19T09:47:57.706Z,5.70
2018-02-19T09:49:00.991Z,5.80
2018-02-19T09:50:04.316Z,5.80
2018-02-19T09:51:06.875Z,5.80
2018-02-19T09:52:09.390Z,5.80
2018-02-19T09:53:11.954Z,5.80
2018-02-19T09:54:14.512Z,5.90
2018-02-19T09:55:17.032Z,5.90
2018-02-19T09:56:19.547Z,5.90
2018-02-19T09:57:22.364Z,5.90
2018-02-19T09:58:24.607Z,5.90
2018-02-19T09:59:27.892Z,6.00
2018-02-19T10:00:31.168Z,6.00
2018-02-19T10:01:34.439Z,6.00
2018-02-19T10:02:36.947Z,6.00
2018-02-19T10:03:39.484Z,6.00
2018-02-19T10:04:42.755Z,6.10
2018-02-19T10:05:45.304Z,6.10
2018-02-19T10:06:47.814Z,6.10
2018-02-19T10:07:50.349Z,6.10
2018-02-19T10:08:52.898Z,6.10
2018-02-19T10:09:55.405Z,6.10
2018-02-19T10:10:58.686Z,6.10
2018-02-19T10:12:01.994Z,6.10
2018-02-19T10:13:04.501Z,6.10
2018-02-19T10:14:07.067Z,6.20
2018-02-19T10:15:09.574Z,6.20
2018-02-19T10:16:12.079Z,6.20
2018-02-19T10:17:14.588Z,6.20
2018-02-19T10:18:17.859Z,6.20
2018-02-19T10:19:20.383Z,6.20
2018-02-19T10:20:22.899Z,6.20
2018-02-19T10:21:26.203Z,6.30
2018-02-19T10:22:28.711Z,6.30
2018-02-19T10:23:31.217Z,6.30
2018-02-19T10:24:34.522Z,6.30
2018-02-19T10:25:37.031Z,6.30
2018-02-19T10:26:39.537Z,6.30
2018-02-19T10:27:42.829Z,6.30
2018-02-19T10:28:46.094Z,6.40
2018-02-19T10:29:49.411Z,6.30
2018-02-19T10:30:51.929Z,6.40
2018-02-19T10:31:54.464Z,6.40
2018-02-19T10:32:57.023Z,6.30
2018-02-19T10:33:59.536Z,6.40
2018-02-19T10:35:02.839Z,6.40
2018-02-19T10:36:05.355Z,6.40
2018-02-19T10:37:07.851Z,6.40
2018-02-19T10:38:10.449Z,6.40
2018-02-19T10:39:12.954Z,6.40
2018-02-19T10:40:15.474Z,6.40
2018-02-19T10:41:17.986Z,6.40
2018-02-19T10:42:20.488Z,6.40
2018-02-19T10:43:23.767Z,6.40
2018-02-19T10:44:27.040Z,6.40
2018-02-19T10:45:29.567Z,6.40
2018-02-19T10:46:32.078Z,6.40
2018-02-19T10:47:34.578Z,6.40
2018-02-19T10:48:37.106Z,6.50
2018-02-19T10:49:40.389Z,6.50
2018-02-19T10:50:43.680Z,6.50
2018-02-19T10:51:46.958Z,6.60
2018-02-19T10:52:50.227Z,6.60
2018-02-19T10:53:52.842Z,6.60
2018-02-19T10:54:55.349Z,6.60
2018-02-19T10:55:57.910Z,6.60
2018-02-19T10:57:00.412Z,6.70
2018-02-19T10:58:03.688Z,6.70
2018-02-19T10:59:06.196Z,6.70
2018-02-19T11:00:08.695Z,6.70
2018-02-19T11:01:11.223Z,6.70
2018-02-19T11:02:13.759Z,6.70
2018-02-19T11:03:17.028Z,6.80
2018-02-19T11:04:19.534Z,6.80
2018-02-19T11:05:22.121Z,6.80
2018-02-19T11:06:24.671Z,6.80
2018-02-19T11:07:27.171Z,6.80
2018-02-19T11:08:29.698Z,6.80
2018-02-19T11:09:32.279Z,6.90
2018-02-19T11:10:34.792Z,6.90
2018-02-19T11:11:37.351Z,6.90
2018-02-19T11:12:39.872Z,6.90
2018-02-19T11:13:42.386Z,6.90
2018-02-19T11:14:46.398Z,6.90
2018-02-19T11:15:49.672Z,6.90
2018-02-19T11:16:52.219Z,6.90
2018-02-19T11:17:54.726Z,6.90
2018-02-19T11:18:58.008Z,7.00
2018-02-19T11:20:01.286Z,6.90
2018-02-19T11:21:04.558Z,6.90
2018-02-19T11:22:07.079Z,6.90
2018-02-19T11:23:09.629Z,6.90
2018-02-19T11:24:12.182Z,6.90
2018-02-19T11:25:15.447Z,7.00
2018-02-19T11:26:18.719Z,7.00
2018-02-19T11:27:21.263Z,7.00
2018-02-19T11:28:23.777Z,7.00
2018-02-19T11:29:26.292Z,7.00
2018-02-19T11:30:28.819Z,7.10
2018-02-19T11:31:31.331Z,7.10
2018-02-19T11:32:33.850Z,7.10
2018-02-19T11:33:36.372Z,7.10
2018-02-19T11:34:39.648Z,7.20
2018-02-19T11:35:42.156Z,7.10
2018-02-19T11:36:44.680Z,7.10
2018-02-19T11:37:47.202Z,7.20
2018-02-19T11:38:55.379Z,7.20
2018-02-19T11:39:53.007Z,7.20
2018-02-19T11:40:55.513Z,7.20
2018-02-19T11:41:58.028Z,7.20
2018-02-19T11:43:00.569Z,7.20
2018-02-19T11:44:03.907Z,7.20
2018-02-19T11:45:07.184Z,7.20
2018-02-19T11:46:10.478Z,7.20
2018-02-19T11:47:12.992Z,7.20
2018-02-19T11:48:15.545Z,7.20
2018-02-19T11:49:18.055Z,7.20
2018-02-19T11:50:21.331Z,7.20
2018-02-19T11:51:23.855Z,7.20
2018-02-19T11:52:26.355Z,7.20
2018-02-19T11:53:28.880Z,7.20
2018-02-19T11:54:31.380Z,7.10
2018-02-19T11:55:33.888Z,7.20
2018-02-19T11:56:36.387Z,7.20
2018-02-19T11:57:38.890Z,7.20
2018-02-19T11:58:41.420Z,7.20
2018-02-19T11:59:43.935Z,7.20
2018-02-19T12:00:47.217Z,7.20
2018-02-19T12:01:50.497Z,7.30
2018-02-19T12:02:53.788Z,7.30
2018-02-19T12:03:57.087Z,7.30
2018-02-19T12:04:59.774Z,7.30
2018-02-19T12:06:02.335Z,7.30
2018-02-19T12:07:05.588Z,7.30
2018-02-19T12:08:08.880Z,7.30
2018-02-19T12:09:11.412Z,7.30
2018-02-19T12:10:13.928Z,7.40
2018-02-19T12:11:16.472Z,7.40
2018-02-19T12:12:19.744Z,7.40
2018-02-19T12:13:23.027Z,7.40
2018-02-19T12:14:25.575Z,7.40
2018-02-19T12:15:28.078Z,7.50
2018-02-19T12:16:31.347Z,7.50
2018-02-19T12:17:34.627Z,7.50
2018-02-19T12:18:37.905Z,7.50
2018-02-19T12:19:40.447Z,7.50
2018-02-19T12:20:42.960Z,7.50
2018-02-19T12:21:46.226Z,7.40
2018-02-19T12:22:49.515Z,7.40
2018-02-19T12:23:52.795Z,7.40
2018-02-19T12:24:56.079Z,7.40
2018-02-19T12:25:59.359Z,7.40
2018-02-19T12:27:02.618Z,7.50
2018-02-19T12:28:05.128Z,7.40
2018-02-19T12:29:07.644Z,7.50
2018-02-19T12:30:10.175Z,7.50
2018-02-19T12:31:12.687Z,7.50
2018-02-19T12:32:15.215Z,7.60
2018-02-19T12:33:17.718Z,7.60
2018-02-19T12:34:20.234Z,7.60
2018-02-19T12:35:22.766Z,7.60
2018-02-19T12:36:26.049Z,7.60
2018-02-19T12:37:29.315Z,7.60
2018-02-19T12:38:31.825Z,7.60
2018-02-19T12:39:34.348Z,7.70
2018-02-19T12:40:37.658Z,7.70
2018-02-19T12:41:40.927Z,7.70
2018-02-19T12:42:44.199Z,7.70
2018-02-19T12:43:46.698Z,7.70
2018-02-19T12:44:49.203Z,7.70
2018-02-19T12:45:51.732Z,7.70
2018-02-19T12:46:54.239Z,7.70
2018-02-19T12:47:56.744Z,7.70
2018-02-19T12:49:00.038Z,7.70
2018-02-19T12:50:02.553Z,7.70
2018-02-19T12:51:05.103Z,7.70
2018-02-19T12:52:07.618Z,7.70
2018-02-19T12:53:10.896Z,7.70
2018-02-19T12:54:13.415Z,7.70
2018-02-19T12:55:15.927Z,7.70
2018-02-19T12:56:18.451Z,7.70
2018-02-19T12:57:20.972Z,7.70
2018-02-19T12:58:24.262Z,7.70
2018-02-19T12:59:31.237Z,7.70
2018-02-19T13:00:34.192Z,7.70
2018-02-19T13:01:37.506Z,7.60
2018-02-19T13:02:40.027Z,7.60
2018-02-19T13:05:10.422Z,7.60
2018-02-19T13:06:12.928Z,7.50
2018-02-19T13:07:15.459Z,7.50
2018-02-19T13:08:17.970Z,7.50
2018-02-19T13:09:21.251Z,7.50
2018-02-19T13:10:34.355Z,7.50
2018-02-19T13:11:46.837Z,7.50
2018-02-19T13:12:51.256Z,7.50
2018-02-19T13:14:00.946Z,7.50
2018-02-19T13:15:05.966Z,7.60
2018-02-19T13:16:09.214Z,7.60
2018-02-19T13:17:12.490Z,7.60
2018-02-19T13:18:15.014Z,7.60
2018-02-19T13:19:17.568Z,7.60
2018-02-19T13:20:20.083Z,7.60
2018-02-19T13:21:22.587Z,7.70
2018-02-19T13:22:25.096Z,7.70
2018-02-19T13:23:27.626Z,7.70
2018-02-19T13:24:30.136Z,7.70
2018-02-19T13:25:32.647Z,7.70
2018-02-19T13:26:35.161Z,7.80
2018-02-19T13:27:37.669Z,7.80
2018-02-19T13:28:40.199Z,7.90
2018-02-19T13:29:42.697Z,7.90
2018-02-19T13:30:46.141Z,7.90
2018-02-19T13:31:48.647Z,7.90
2018-02-19T13:32:51.928Z,8.00
2018-02-19T13:33:55.212Z,8.10
2018-02-19T13:34:57.719Z,8.00
2018-02-19T13:36:00.243Z,8.10
2018-02-19T13:37:02.750Z,8.10
2018-02-19T13:38:05.267Z,8.20
2018-02-19T13:39:08.551Z,8.30
2018-02-19T13:40:11.818Z,8.30
2018-02-19T13:41:14.325Z,8.30
2018-02-19T13:42:16.879Z,8.40
2018-02-19T13:43:19.396Z,8.40
2018-02-19T13:44:21.911Z,8.40
2018-02-19T13:45:24.424Z,8.40
2018-02-19T13:46:26.937Z,8.50
2018-02-19T13:47:29.455Z,8.50
2018-02-19T13:48:31.972Z,8.50
2018-02-19T13:49:34.498Z,8.50
2018-02-19T13:50:37.006Z,8.50
2018-02-19T13:51:39.506Z,8.50
2018-02-19T13:52:42.009Z,8.50
2018-02-19T13:53:45.283Z,8.50
2018-02-19T13:54:47.887Z,8.50
2018-02-19T13:55:50.390Z,8.50
2018-02-19T13:56:53.790Z,8.50
2018-02-19T13:57:56.295Z,8.50
2018-02-19T13:58:58.795Z,8.50